Time;durP1;ratioP1;P1;durP2;ratioP2;P2;SDS_P1;SDS_P2;PMS_P1;PMS_P2;Temp;Humidity;BMP_temperature;BMP_pressure;BME280_temperature;BME280_humidity;BME280_pressure;Samples;Min_cycle;Max_cycle;Signal;HPM_P1;HPM_P2
2022/01/22 04:03:05;;;;;;;3.00;2.10;;;4.50;83.60;;;;;;5262396;23;20493;-77
2022/01/22 04:05:33;;;;;;;3.47;2.30;;;4.40;83.80;;;;;;4993677;28;20442;-77
2022/01/22 04:08:11;;;;;;;3.30;2.37;;;4.20;84.30;;;;;;4994093;28;20445;-77
2022/01/22 04:10:38;;;;;;;2.90;1.93;;;4.20;84.70;;;;;;4993740;28;20777;-77
2022/01/22 04:13:08;;;;;;;3.10;2.10;;;4.20;84.60;;;;;;4993684;28;20940;-77
2022/01/22 04:15:38;;;;;;;3.03;2.10;;;4.10;84.50;;;;;;4995481;28;20456;-77
2022/01/22 04:26:30;;;;;;;2.90;1.90;;;4.10;85.30;;;;;;4997878;28;20455;-77
2022/01/22 04:28:57;;;;;;;3.10;2.53;;;4.20;85.10;;;;;;4997804;28;20512;-77
2022/01/22 04:31:24;;;;;;;3.80;2.40;;;4.40;84.80;;;;;;4997687;28;20559;-77
2022/01/22 04:33:52;;;;;;;3.83;2.10;;;4.40;84.40;;;;;;4997686;28;20624;-77
2022/01/22 04:36:18;;;;;;;3.67;2.13;;;4.50;84.00;;;;;;4997586;28;20475;-77
2022/01/22 04:38:45;;;;;;;2.90;1.90;;;4.50;83.40;;;;;;4997574;28;20453;-77
2022/01/22 04:41:12;;;;;;;3.50;2.30;;;4.50;83.60;;;;;;4997402;28;20527;-77
2022/01/22 04:43:41;;;;;;;3.30;2.37;;;4.50;83.40;;;;;;4997943;28;20476;-77
2022/01/22 04:46:16;;;;;;;3.30;2.33;;;4.50;83.30;;;;;;4997566;28;20453;-77
2022/01/22 04:48:51;;;;;;;3.40;2.27;;;4.40;83.20;;;;;;4997496;28;20476;-76
2022/01/22 04:56:48;;;;;;;3.10;2.30;;;4.30;83.80;;;;;;4997267;28;20401;-77
2022/01/22 04:59:15;;;;;;;3.00;1.90;;;4.30;83.70;;;;;;4997033;28;20452;-77
2022/01/22 05:01:42;;;;;;;3.20;2.10;;;4.20;84.00;;;;;;4996815;28;20485;-77
2022/01/22 05:04:09;;;;;;;3.40;2.17;;;4.30;84.00;;;;;;4997030;28;20624;-77
2022/01/22 05:06:37;;;;;;;3.13;2.23;;;4.40;84.00;;;;;;4997049;28;20452;-77
2022/01/22 05:09:04;;;;;;;3.90;2.00;;;4.40;83.50;;;;;;4996755;28;20799;-77
2022/01/22 05:11:31;;;;;;;3.00;2.10;;;4.40;83.70;;;;;;4996533;28;20869;-77
2022/01/22 05:13:58;;;;;;;3.50;2.30;;;4.50;83.50;;;;;;4996965;28;20865;-77
2022/01/22 05:16:25;;;;;;;3.17;1.93;;;4.50;82.60;;;;;;4996904;28;20448;-77
2022/01/22 05:18:56;;;;;;;2.90;2.13;;;4.60;82.80;;;;;;4996611;28;20441;-77
2022/01/22 05:21:24;;;;;;;3.73;2.47;;;4.70;82.60;;;;;;4996563;28;20527;-77
2022/01/22 05:23:54;;;;;;;3.40;2.30;;;4.60;81.70;;;;;;4996471;28;20988;-77
2022/01/22 05:26:50;;;;;;;3.03;2.03;;;4.60;82.30;;;;;;4999113;28;20457;-77
2022/01/22 05:29:24;;;;;;;3.40;2.30;;;4.70;82.00;;;;;;4998602;28;20434;-77
2022/01/22 05:32:20;;;;;;;2.90;1.90;;;4.70;81.80;;;;;;4999771;28;20836;-78
2022/01/22 05:37:31;;;;;;;4.50;2.30;;;5.00;81.50;;;;;;4996347;28;20409;-77
2022/01/22 05:40:00;;;;;;;3.30;2.00;;;5.00;80.80;;;;;;4996487;28;20534;-77
2022/01/22 05:42:26;;;;;;;3.07;2.43;;;5.10;80.70;;;;;;4996014;28;21003;-77
2022/01/22 05:44:53;;;;;;;3.17;2.13;;;5.00;80.50;;;;;;4996412;28;20449;-77
2022/01/22 05:47:23;;;;;;;3.30;2.27;;;5.00;80.60;;;;;;4996384;28;20507;-77
2022/01/22 05:49:51;;;;;;;3.90;2.27;;;5.10;80.50;;;;;;4996265;28;20440;-77
2022/01/22 05:52:25;;;;;;;3.73;2.20;;;5.20;80.40;;;;;;4996166;28;20484;-77
2022/01/22 05:55:12;;;;;;;3.53;2.53;;;5.10;80.00;;;;;;4996041;28;20925;-77
2022/01/22 06:00:30;;;;;;;3.30;2.10;;;5.10;80.30;;;;;;4958308;28;20438;-77
2022/01/22 06:02:57;;;;;;;3.40;1.73;;;5.20;80.10;;;;;;4995497;28;20543;-77
2022/01/22 06:05:23;;;;;;;2.80;1.90;;;5.20;80.00;;;;;;4995592;28;20956;-77
2022/01/22 06:07:50;;;;;;;3.27;2.20;;;5.10;79.90;;;;;;4995620;28;20944;-77
2022/01/22 06:10:18;;;;;;;3.03;1.93;;;5.00;79.90;;;;;;4996285;28;20507;-77
2022/01/22 06:12:58;;;;;;;3.30;2.00;;;5.10;80.30;;;;;;4995502;28;20863;-77
2022/01/22 06:15:25;;;;;;;3.63;2.50;;;5.00;80.00;;;;;;4995808;28;20516;-77
2022/01/22 06:17:52;;;;;;;4.23;2.70;;;5.00;80.40;;;;;;4995362;28;20484;-77
2022/01/22 06:20:19;;;;;;;3.30;2.00;;;4.90;80.40;;;;;;4995395;28;20865;-77
2022/01/22 06:22:45;;;;;;;3.30;2.00;;;4.80;80.70;;;;;;4995538;28;20493;-77
2022/01/22 06:25:12;;;;;;;3.17;2.40;;;4.70;80.90;;;;;;4995616;28;20449;-77
2022/01/22 06:27:39;;;;;;;3.10;2.00;;;4.80;81.30;;;;;;4995623;28;20507;-77
2022/01/22 06:30:08;;;;;;;2.97;2.00;;;4.70;81.00;;;;;;4995494;28;20483;-78
2022/01/22 06:32:35;;;;;;;3.40;2.00;;;4.80;81.40;;;;;;4995499;28;21026;-77
2022/01/22 06:35:02;;;;;;;3.23;2.20;;;4.90;81.30;;;;;;4995389;28;20456;-77
2022/01/22 06:37:28;;;;;;;2.90;2.10;;;5.00;81.00;;;;;;4995467;28;20504;-77
2022/01/22 06:42:45;;;;;;;2.83;2.00;;;5.10;80.40;;;;;;4957691;28;20631;-78
2022/01/22 06:45:13;;;;;;;3.27;2.00;;;5.10;80.20;;;;;;4995300;28;20529;-77
2022/01/22 06:47:40;;;;;;;3.10;1.90;;;5.00;79.80;;;;;;4995207;28;20462;-77
2022/01/22 06:50:08;;;;;;;2.90;2.10;;;4.90;80.40;;;;;;4995060;28;20868;-77
2022/01/22 06:52:35;;;;;;;4.00;2.17;;;4.90;80.60;;;;;;4995596;28;20882;-77
2022/01/22 06:55:02;;;;;;;3.10;2.23;;;4.90;80.90;;;;;;4995099;28;20452;-77
2022/01/22 06:57:29;;;;;;;3.20;2.30;;;4.90;80.80;;;;;;4995063;28;20453;-77
2022/01/22 06:59:56;;;;;;;3.30;2.20;;;4.90;80.40;;;;;;4994977;28;20492;-77
2022/01/22 07:02:24;;;;;;;4.07;2.30;;;4.70;80.90;;;;;;4994656;28;20496;-77
2022/01/22 07:04:51;;;;;;;2.77;2.10;;;4.70;81.00;;;;;;4995120;28;20918;-77
2022/01/22 07:07:17;;;;;;;3.60;2.40;;;4.70;81.00;;;;;;4994905;28;20503;-77
2022/01/22 07:09:45;;;;;;;2.90;2.30;;;4.50;81.70;;;;;;4994887;28;20460;-77
2022/01/22 07:12:12;;;;;;;3.67;2.50;;;4.60;81.80;;;;;;4994827;28;20537;-77
2022/01/22 07:14:39;;;;;;;3.33;2.33;;;4.70;81.70;;;;;;4994816;28;20453;-76
2022/01/22 07:17:07;;;;;;;3.53;2.50;;;4.80;81.50;;;;;;4994695;28;20455;-77
2022/01/22 07:19:39;;;;;;;3.10;2.20;;;4.90;81.00;;;;;;4994721;28;20457;-77
2022/01/22 07:22:19;;;;;;;3.87;2.50;;;4.80;81.00;;;;;;4994612;28;20484;-77
2022/01/22 07:24:46;;;;;;;3.07;2.37;;;4.80;81.20;;;;;;4994240;28;20883;-77
2022/01/22 07:27:12;;;;;;;3.80;2.47;;;4.70;81.50;;;;;;4994130;28;20867;-77
2022/01/22 07:29:43;;;;;;;3.23;2.30;;;4.70;81.70;;;;;;4994591;28;20819;-77
2022/01/22 07:32:13;;;;;;;3.27;2.33;;;4.60;82.00;;;;;;4994357;28;20520;-77
2022/01/22 07:34:42;;;;;;;3.50;2.20;;;4.50;82.20;;;;;;4994389;28;20533;-77
2022/01/22 07:37:08;;;;;;;3.50;2.10;;;4.30;83.30;;;;;;4994336;28;20449;-77
2022/01/22 07:39:35;;;;;;;3.03;2.07;;;4.20;83.80;;;;;;4994309;28;20445;-77
2022/01/22 07:42:02;;;;;;;3.87;2.60;;;4.20;84.00;;;;;;4994258;28;20527;-77
2022/01/22 07:44:29;;;;;;;3.57;2.33;;;4.40;84.10;;;;;;4994152;28;20910;-77
2022/01/22 07:46:56;;;;;;;3.30;2.50;;;4.10;84.10;;;;;;4994334;28;20544;-77
2022/01/22 07:49:22;;;;;;;3.87;2.37;;;4.10;85.20;;;;;;4994289;28;20460;-77
2022/01/22 07:51:50;;;;;;;3.80;2.70;;;4.10;85.00;;;;;;4994146;28;20469;-77
2022/01/22 07:54:20;;;;;;;3.80;2.70;;;4.10;85.40;;;;;;4994065;28;20457;-77
2022/01/22 07:56:47;;;;;;;3.63;2.87;;;4.10;85.20;;;;;;4994164;28;20504;-77
2022/01/22 07:59:13;;;;;;;3.83;3.20;;;3.90;85.30;;;;;;4993483;28;20515;-77
2022/01/22 08:01:40;;;;;;;3.67;2.53;;;3.80;85.80;;;;;;4993759;28;20485;-77
2022/01/22 08:04:07;;;;;;;3.20;2.40;;;3.90;86.60;;;;;;4995018;28;20485;-77
2022/01/22 08:06:33;;;;;;;4.17;3.13;;;3.80;86.40;;;;;;4994118;28;20456;-77
2022/01/22 08:09:01;;;;;;;3.73;2.80;;;3.80;86.80;;;;;;4993998;28;20457;-77
2022/01/22 08:11:28;;;;;;;3.50;2.87;;;3.80;86.40;;;;;;4993696;28;21038;-78
2022/01/22 08:13:55;;;;;;;4.47;2.80;;;3.80;86.40;;;;;;4994031;28;20461;-77
2022/01/22 08:16:21;;;;;;;4.20;2.73;;;3.80;86.40;;;;;;4993861;28;20449;-77
2022/01/22 08:18:48;;;;;;;4.00;3.30;;;3.80;86.80;;;;;;4993863;28;20511;-77
2022/01/22 08:21:14;;;;;;;4.70;2.93;;;3.90;86.90;;;;;;4993822;28;20464;-77
2022/01/22 08:23:41;;;;;;;3.43;2.53;;;3.70;86.70;;;;;;4993943;28;20531;-77
2022/01/22 08:26:11;;;;;;;4.00;2.80;;;3.70;87.80;;;;;;4993868;28;20449;-77
2022/01/22 08:28:57;;;;;;;3.70;2.80;;;3.90;87.30;;;;;;4993931;28;20456;-77
2022/01/22 08:31:38;;;;;;;3.73;2.70;;;4.00;87.00;;;;;;4993857;28;20476;-77
2022/01/22 08:36:50;;;;;;;4.30;2.93;;;4.00;86.70;;;;;;4993867;28;20408;-77
2022/01/22 08:39:18;;;;;;;4.00;3.27;;;4.00;86.60;;;;;;4993719;28;20461;-77
2022/01/22 08:41:47;;;;;;;5.10;3.20;;;4.00;86.70;;;;;;4993722;28;20469;-77
2022/01/22 08:44:14;;;;;;;3.60;3.00;;;4.00;87.00;;;;;;4993758;28;20485;-77
2022/01/22 08:46:41;;;;;;;4.10;3.13;;;3.80;87.00;;;;;;4993677;28;20453;-77
2022/01/22 08:49:09;;;;;;;3.63;2.87;;;3.80;87.60;;;;;;4993611;28;20449;-77
2022/01/22 08:51:38;;;;;;;4.17;3.37;;;3.80;87.70;;;;;;4993581;28;20495;-77
2022/01/22 08:54:05;;;;;;;3.50;2.83;;;3.80;87.80;;;;;;4993331;28;20955;-77
2022/01/22 08:56:32;;;;;;;3.70;2.70;;;3.60;88.10;;;;;;4993226;28;20949;-77
2022/01/22 08:59:00;;;;;;;3.13;2.40;;;3.70;88.30;;;;;;4994056;28;20519;-76
2022/01/22 09:01:27;;;;;;;3.53;2.80;;;3.90;88.40;;;;;;4993255;28;20485;-77
2022/01/22 09:03:53;;;;;;;3.00;2.30;;;4.00;88.10;;;;;;4993413;28;20485;-77
2022/01/22 09:06:21;;;;;;;3.67;2.87;;;4.10;87.50;;;;;;4993623;28;20453;-77
2022/01/22 09:08:50;;;;;;;4.00;3.00;;;4.20;87.30;;;;;;4993502;28;20512;-77
2022/01/22 09:11:18;;;;;;;4.43;2.77;;;4.40;86.90;;;;;;4995809;28;20483;-77
2022/01/22 09:13:45;;;;;;;3.50;2.47;;;4.60;86.70;;;;;;4996885;28;20507;-77
2022/01/22 09:16:13;;;;;;;3.50;2.70;;;4.70;86.00;;;;;;4996840;28;20461;-77
2022/01/22 09:18:39;;;;;;;3.73;2.80;;;4.90;85.10;;;;;;4996880;28;20453;-77
2022/01/22 09:21:06;;;;;;;4.63;2.40;;;4.90;84.60;;;;;;4996393;28;21042;-77
2022/01/22 09:23:33;;;;;;;3.63;2.77;;;5.00;84.60;;;;;;4996635;28;20455;-77
2022/01/22 09:26:01;;;;;;;3.47;2.80;;;5.10;84.10;;;;;;4996665;28;20507;-77
2022/01/22 09:28:30;;;;;;;3.63;2.40;;;5.00;83.30;;;;;;4996638;28;20511;-76
2022/01/22 09:30:57;;;;;;;3.93;3.40;;;4.90;83.80;;;;;;4996402;28;20489;-76
2022/01/22 09:33:25;;;;;;;3.60;2.90;;;4.60;84.10;;;;;;4996594;28;20457;-77
2022/01/22 09:35:52;;;;;;;3.70;3.20;;;4.50;85.00;;;;;;4996475;28;20508;-76
2022/01/22 09:38:18;;;;;;;3.63;3.10;;;4.20;86.20;;;;;;4996484;28;20457;-77
2022/01/22 09:40:45;;;;;;;3.23;2.57;;;4.30;86.90;;;;;;4996854;28;20962;-77
2022/01/22 09:43:13;;;;;;;3.30;2.90;;;4.50;86.60;;;;;;4996405;28;20457;-77
2022/01/22 09:45:40;;;;;;;4.17;3.67;;;4.60;86.30;;;;;;4996000;28;21027;-77
2022/01/22 09:48:07;;;;;;;5.30;2.87;;;4.60;86.10;;;;;;4996309;28;20449;-77
2022/01/22 09:50:36;;;;;;;3.30;2.60;;;4.80;85.80;;;;;;4995959;28;21015;-77
2022/01/22 09:53:04;;;;;;;4.97;3.07;;;5.00;85.60;;;;;;4996225;28;20453;-77
2022/01/22 09:55:30;;;;;;;3.73;2.80;;;5.20;85.30;;;;;;4996227;28;20457;-77
2022/01/22 09:57:58;;;;;;;3.23;2.47;;;5.20;84.90;;;;;;4996161;28;20504;-77
2022/01/22 10:00:26;;;;;;;3.60;2.73;;;5.20;83.80;;;;;;4996474;28;20469;-77
2022/01/22 10:02:54;;;;;;;4.23;3.20;;;5.20;83.90;;;;;;4995615;28;20584;-77
2022/01/22 10:05:43;;;;;;;4.20;2.93;;;5.10;84.10;;;;;;4995749;28;20906;-76
2022/01/22 10:08:24;;;;;;;3.47;2.70;;;5.30;84.50;;;;;;4991255;28;20523;-77
2022/01/22 10:10:51;;;;;;;3.93;2.60;;;5.20;84.30;;;;;;4995846;28;20473;-77
2022/01/22 10:13:37;;;;;;;4.97;3.10;;;5.20;84.40;;;;;;4995948;28;20449;-77
2022/01/22 10:16:14;;;;;;;3.90;2.70;;;5.30;84.30;;;;;;4997416;28;20517;-76
2022/01/22 10:18:41;;;;;;;3.50;3.00;;;5.20;84.40;;;;;;4995776;28;20433;-77
2022/01/22 10:21:12;;;;;;;3.80;3.30;;;5.10;84.60;;;;;;4995494;28;20532;-77
2022/01/22 10:23:41;;;;;;;4.27;2.60;;;5.20;85.00;;;;;;4996309;28;20843;-77
2022/01/22 10:26:11;;;;;;;3.80;3.10;;;5.30;84.60;;;;;;4995526;28;20440;-77
2022/01/22 10:28:45;;;;;;;4.20;2.97;;;5.30;84.50;;;;;;4995664;28;20858;-77
2022/01/22 10:31:20;;;;;;;4.23;3.57;;;5.40;84.30;;;;;;4995484;28;20476;-77
2022/01/22 10:34:08;;;;;;;3.87;2.77;;;5.50;84.30;;;;;;4995294;28;20800;-77
2022/01/22 10:36:36;;;;;;;3.20;2.40;;;5.40;83.70;;;;;;4995529;28;20487;-77
2022/01/22 10:39:07;;;;;;;3.50;3.00;;;5.40;84.20;;;;;;4995283;28;20496;-77
2022/01/22 10:41:37;;;;;;;3.37;2.80;;;5.40;84.40;;;;;;4995290;28;20465;-77
2022/01/22 10:44:07;;;;;;;5.27;3.17;;;5.50;84.40;;;;;;4995192;28;20456;-77
2022/01/22 10:46:46;;;;;;;4.10;2.40;;;5.20;83.80;;;;;;4995945;28;20477;-77
2022/01/22 10:49:14;;;;;;;4.03;2.87;;;5.10;84.90;;;;;;4995085;28;20441;-77
2022/01/22 10:51:48;;;;;;;3.77;2.87;;;4.90;85.60;;;;;;4995118;28;20476;-77
2022/01/22 10:54:16;;;;;;;4.23;2.83;;;5.10;86.00;;;;;;4995255;28;20831;-77
2022/01/22 10:56:43;;;;;;;3.70;2.53;;;5.10;85.80;;;;;;4995053;28;20580;-77
2022/01/22 10:59:12;;;;;;;3.70;2.57;;;5.10;85.60;;;;;;4994971;28;20453;-77
2022/01/22 11:01:55;;;;;;;2.93;2.60;;;5.10;85.80;;;;;;4994508;28;20984;-77
2022/01/22 11:04:24;;;;;;;3.77;2.67;;;5.10;85.90;;;;;;4994880;28;20469;-75
2022/01/22 11:06:55;;;;;;;3.20;2.30;;;5.10;86.10;;;;;;4995036;28;20449;-76
2022/01/22 11:09:24;;;;;;;3.83;2.33;;;5.30;86.00;;;;;;4994894;28;20503;-76
2022/01/22 11:11:51;;;;;;;3.40;2.57;;;5.20;85.40;;;;;;4994747;28;20501;-76
2022/01/22 11:14:19;;;;;;;3.93;2.63;;;5.00;86.10;;;;;;4996506;28;20543;-76
2022/01/22 11:16:47;;;;;;;3.63;3.03;;;5.10;86.30;;;;;;4995859;28;20468;-77
2022/01/22 11:19:16;;;;;;;3.80;3.10;;;5.00;86.50;;;;;;4994354;28;20871;-77
2022/01/22 11:21:47;;;;;;;3.53;3.10;;;5.20;86.70;;;;;;4994628;28;20462;-77
2022/01/22 11:24:17;;;;;;;4.40;4.00;;;5.20;85.90;;;;;;4994924;28;20469;-77
2022/01/22 11:26:50;;;;;;;3.70;3.10;;;5.20;86.00;;;;;;4994510;28;20421;-77
2022/01/22 11:29:18;;;;;;;3.40;2.67;;;5.30;86.50;;;;;;4994545;28;20441;-77
2022/01/22 11:31:47;;;;;;;4.10;3.50;;;5.50;86.10;;;;;;4994465;28;20469;-76
2022/01/22 11:34:16;;;;;;;4.50;3.00;;;5.50;85.80;;;;;;4994419;28;20459;-77
2022/01/22 11:36:47;;;;;;;3.13;2.37;;;5.60;85.60;;;;;;4994128;28;20948;-77
2022/01/22 11:39:24;;;;;;;4.00;2.40;;;5.70;85.00;;;;;;4994418;28;20461;-77
2022/01/22 11:41:53;;;;;;;3.50;2.57;;;5.60;85.10;;;;;;4994317;28;20476;-77
2022/01/22 11:44:26;;;;;;;4.20;2.90;;;5.70;85.00;;;;;;4993859;28;20453;-77
2022/01/22 11:47:08;;;;;;;3.60;2.57;;;5.80;84.70;;;;;;4994304;28;20434;-77
2022/01/22 11:49:36;;;;;;;3.00;2.50;;;5.90;84.50;;;;;;4994228;28;20441;-77
2022/01/22 11:52:24;;;;;;;3.30;2.77;;;5.90;84.10;;;;;;4994146;28;20480;-77
2022/01/22 11:54:54;;;;;;;3.63;2.47;;;5.90;83.90;;;;;;4994268;28;20529;-77
2022/01/22 11:57:22;;;;;;;3.97;2.40;;;5.90;83.90;;;;;;4994083;28;20460;-77
2022/01/22 11:59:50;;;;;;;3.33;2.97;;;6.00;84.10;;;;;;4994026;28;20523;-77
2022/01/22 12:02:18;;;;;;;4.07;2.03;;;6.10;83.60;;;;;;4994031;28;20489;-76
2022/01/22 12:05:01;;;;;;;3.30;2.53;;;6.00;83.40;;;;;;4996497;28;20555;-77
2022/01/22 12:07:29;;;;;;;3.20;2.60;;;6.20;83.50;;;;;;4995989;28;20440;-77
2022/01/22 12:16:16;;;;;;;3.30;2.63;;;6.10;83.50;;;;;;4995879;28;20409;-77
2022/01/22 12:18:51;;;;;;;3.17;2.47;;;6.10;83.80;;;;;;4995691;28;20453;-77
2022/01/22 12:21:33;;;;;;;3.70;2.33;;;6.20;83.80;;;;;;4996142;28;20479;-77
2022/01/22 12:24:01;;;;;;;4.43;2.27;;;6.20;84.10;;;;;;4997557;28;20500;-77
2022/01/22 12:26:48;;;;;;;3.20;2.20;;;6.20;83.40;;;;;;4997057;28;20477;-77
2022/01/22 12:29:34;;;;;;;3.17;2.30;;;6.30;83.50;;;;;;4996229;28;20786;-77
2022/01/22 12:32:34;;;;;;;2.80;1.77;;;6.40;83.50;;;;;;4996227;28;20472;-76
2022/01/22 12:35:09;;;;;;;3.10;2.20;;;6.40;83.10;;;;;;4996072;28;20434;-77
2022/01/22 12:37:50;;;;;;;2.90;1.90;;;6.50;83.00;;;;;;4996324;28;20433;-77
2022/01/22 12:40:30;;;;;;;3.17;2.13;;;6.60;82.40;;;;;;4996360;28;20484;-78
2022/01/22 12:43:09;;;;;;;3.10;1.87;;;6.70;82.10;;;;;;4996323;28;20449;-76
2022/01/22 12:45:38;;;;;;;3.30;2.10;;;6.70;82.10;;;;;;4997618;28;20469;-77
2022/01/22 12:48:05;;;;;;;3.03;1.90;;;6.70;82.00;;;;;;5000385;28;20441;-75
2022/01/22 12:50:35;;;;;;;2.70;1.50;;;6.70;82.20;;;;;;4999501;28;20453;-76
2022/01/22 12:53:13;;;;;;;2.73;1.50;;;6.80;81.90;;;;;;4999480;28;20433;-77
2022/01/22 12:58:37;;;;;;;3.73;1.40;;;6.70;81.90;;;;;;4995593;28;20431;-76
2022/01/22 13:01:17;;;;;;;2.53;1.10;;;6.80;81.60;;;;;;4999004;28;20493;-77
2022/01/22 13:03:47;;;;;;;3.67;1.73;;;6.80;81.70;;;;;;5000567;28;20437;-76
2022/01/22 13:06:14;;;;;;;2.50;1.30;;;6.80;81.00;;;;;;4999359;28;20496;-76
2022/01/22 13:08:41;;;;;;;2.70;1.33;;;6.70;81.40;;;;;;4999065;28;20945;-76
2022/01/22 13:11:10;;;;;;;2.67;1.53;;;6.70;81.60;;;;;;4999420;28;20472;-76
2022/01/22 13:13:40;;;;;;;4.40;1.20;;;6.80;81.40;;;;;;5000189;28;20504;-76
2022/01/22 13:16:09;;;;;;;2.60;1.40;;;6.80;80.70;;;;;;4999535;28;20457;-76
2022/01/22 13:18:57;;;;;;;3.07;1.73;;;6.90;80.60;;;;;;4999221;28;20453;-76
2022/01/22 13:21:24;;;;;;;2.70;1.40;;;7.00;80.50;;;;;;4999374;28;20555;-76
2022/01/22 13:24:04;;;;;;;2.57;1.23;;;6.90;80.40;;;;;;4999184;28;20480;-76
2022/01/22 13:26:43;;;;;;;2.70;1.37;;;6.60;80.50;;;;;;4998253;28;20476;-79
2022/01/22 13:29:19;;;;;;;2.87;1.20;;;6.60;81.40;;;;;;4999185;28;20465;-76
2022/01/22 13:32:10;;;;;;;2.80;1.20;;;6.70;81.00;;;;;;4998305;28;21002;-77
2022/01/22 13:35:09;;;;;;;2.80;1.43;;;6.80;81.00;;;;;;4998861;28;20501;-76
2022/01/22 13:40:49;;;;;;;3.43;1.70;;;6.90;80.80;;;;;;5000797;28;20460;-76
2022/01/22 13:48:57;;;;;;;2.70;1.53;;;6.70;80.70;;;;;;4999275;28;20787;-76
2022/01/22 13:51:24;;;;;;;2.47;1.33;;;6.70;81.10;;;;;;4998258;28;20519;-77
2022/01/22 13:53:51;;;;;;;2.60;1.40;;;6.80;81.00;;;;;;4997771;28;20456;-76
2022/01/22 13:56:20;;;;;;;2.80;1.43;;;6.70;80.60;;;;;;4998148;28;20442;-76
2022/01/22 13:58:54;;;;;;;2.73;1.50;;;6.80;81.00;;;;;;4998595;28;20454;-76
2022/01/22 14:01:39;;;;;;;2.80;1.70;;;6.70;80.80;;;;;;4997859;28;20485;-75
2022/01/22 14:04:07;;;;;;;2.60;1.60;;;6.80;80.80;;;;;;4997626;28;20894;-75
2022/01/22 14:06:34;;;;;;;3.00;1.90;;;6.80;80.80;;;;;;4998353;28;20477;-76
2022/01/22 14:09:12;;;;;;;3.00;2.10;;;6.80;81.00;;;;;;4996594;28;20448;-76
2022/01/22 14:11:54;;;;;;;2.83;1.50;;;6.90;80.50;;;;;;4995862;28;20560;-76
2022/01/22 14:14:21;;;;;;;3.40;2.53;;;6.80;80.60;;;;;;4995597;28;20452;-76
2022/01/22 14:17:09;;;;;;;3.47;1.77;;;6.80;80.50;;;;;;4995899;28;20500;-76
2022/01/22 14:19:35;;;;;;;3.20;1.80;;;6.60;80.80;;;;;;4995846;28;20429;-76
2022/01/22 14:22:02;;;;;;;2.73;1.30;;;6.60;81.00;;;;;;4995690;28;20527;-76
2022/01/22 14:24:30;;;;;;;2.90;1.67;;;6.50;81.00;;;;;;4995713;28;20871;-76
2022/01/22 14:26:57;;;;;;;2.80;1.77;;;6.40;81.30;;;;;;4995641;28;20571;-76
2022/01/22 14:29:24;;;;;;;2.80;1.80;;;6.50;81.40;;;;;;4995303;28;20936;-76
2022/01/22 14:31:54;;;;;;;2.70;1.50;;;6.50;81.60;;;;;;4995562;28;20536;-76
2022/01/22 14:34:32;;;;;;;2.70;1.47;;;6.60;81.40;;;;;;4995757;28;20485;-76
2022/01/22 14:37:00;;;;;;;2.50;1.30;;;6.70;81.30;;;;;;4995589;28;20524;-76
2022/01/22 14:43:55;;;;;;;2.67;1.57;;;6.70;80.80;;;;;;4995516;28;20449;-76
2022/01/22 14:45:10;;;;;;;2.70;1.50;;;6.30;81.40;;;;;;4996836;28;20480;-76
2022/01/22 14:47:40;;;;;;;3.10;1.97;;;6.20;81.80;;;;;;5001960;28;20429;-76
2022/01/22 14:50:12;;;;;;;2.63;1.47;;;6.20;82.30;;;;;;5002686;28;20519;-75
2022/01/22 14:52:41;;;;;;;2.80;1.70;;;6.30;82.00;;;;;;5001129;28;20472;-75
2022/01/22 14:55:11;;;;;;;3.03;1.93;;;6.20;82.30;;;;;;5001336;28;20911;-76
2022/01/22 14:57:43;;;;;;;3.20;2.23;;;6.10;82.20;;;;;;4999964;28;20841;-75
2022/01/22 15:00:20;;;;;;;3.10;2.00;;;6.20;82.20;;;;;;5001781;28;20531;-75
2022/01/22 15:02:53;;;;;;;2.73;1.90;;;6.10;82.20;;;;;;5001458;28;20484;-74
2022/01/22 15:05:22;;;;;;;3.10;1.83;;;6.10;82.00;;;;;;5000027;28;21036;-77
2022/01/22 15:07:49;;;;;;;3.20;2.30;;;6.10;82.20;;;;;;4999067;28;20857;-76
2022/01/22 15:10:20;;;;;;;2.80;1.70;;;6.10;82.00;;;;;;4999590;28;20457;-76
2022/01/22 15:12:47;;;;;;;3.00;2.13;;;6.00;82.30;;;;;;4997283;28;20469;-77
2022/01/22 15:15:15;;;;;;;3.10;2.20;;;6.00;82.00;;;;;;4994857;28;20825;-76
2022/01/22 15:17:53;;;;;;;2.63;1.50;;;6.00;82.60;;;;;;4994960;28;20468;-76
2022/01/22 15:20:24;;;;;;;3.03;2.03;;;6.10;82.40;;;;;;4994542;28;20924;-76
2022/01/22 15:22:51;;;;;;;2.80;2.00;;;6.20;82.10;;;;;;4994684;28;20436;-76
2022/01/22 15:25:18;;;;;;;3.07;2.13;;;6.20;82.00;;;;;;4994563;28;20445;-76
2022/01/22 15:27:44;;;;;;;2.93;1.87;;;6.20;81.90;;;;;;4994725;28;20504;-76
2022/01/22 15:30:19;;;;;;;2.93;1.90;;;6.10;82.20;;;;;;4994534;28;20445;-76
2022/01/22 15:32:54;;;;;;;3.07;1.70;;;6.00;82.10;;;;;;4994512;28;20499;-76
2022/01/22 15:35:23;;;;;;;2.90;1.70;;;5.90;82.70;;;;;;4994198;28;20441;-76
2022/01/22 15:37:52;;;;;;;2.80;1.80;;;5.90;82.60;;;;;;4994110;28;20845;-76
2022/01/22 15:40:22;;;;;;;3.80;2.27;;;5.80;82.80;;;;;;4994365;28;20445;-76
2022/01/22 15:42:49;;;;;;;3.23;2.27;;;5.80;82.90;;;;;;4994353;28;20453;-76
2022/01/22 15:45:17;;;;;;;2.83;1.80;;;5.90;82.70;;;;;;4994243;28;20963;-76
2022/01/22 15:47:44;;;;;;;3.00;1.70;;;5.90;82.70;;;;;;4993876;28;20871;-76
2022/01/22 15:50:11;;;;;;;3.50;1.97;;;5.90;82.70;;;;;;4994238;28;20454;-76
2022/01/22 15:52:39;;;;;;;3.20;2.20;;;5.90;82.70;;;;;;4994142;28;20519;-76
2022/01/22 15:55:08;;;;;;;3.07;1.90;;;6.00;82.60;;;;;;4994264;28;20444;-76
2022/01/22 15:57:36;;;;;;;3.10;1.80;;;5.90;82.20;;;;;;4993809;28;20932;-76
2022/01/22 16:00:04;;;;;;;2.80;1.97;;;5.90;82.70;;;;;;4994084;28;20477;-76
2022/01/22 16:02:31;;;;;;;3.10;2.07;;;5.90;82.50;;;;;;4993567;28;20488;-76
2022/01/22 16:04:59;;;;;;;2.67;1.80;;;5.90;82.70;;;;;;4994168;28;20822;-76
2022/01/22 16:07:26;;;;;;;3.23;2.20;;;5.90;82.60;;;;;;4994075;28;20512;-76
2022/01/22 16:09:55;;;;;;;2.80;1.90;;;6.00;82.30;;;;;;4993756;28;20941;-76
2022/01/22 16:12:24;;;;;;;3.90;2.40;;;6.00;82.10;;;;;;4994567;28;20477;-76
2022/01/22 16:17:27;;;;;;;3.23;2.10;;;6.00;82.10;;;;;;5014388;23;20486;-78
2022/01/22 16:19:54;;;;;;;2.87;1.83;;;5.90;82.20;;;;;;4995179;28;20449;-80
2022/01/22 16:22:27;;;;;;;3.10;2.40;;;5.70;83.20;;;;;;4997689;28;20568;-78
2022/01/22 16:24:56;;;;;;;3.30;2.10;;;5.70;83.20;;;;;;4997400;28;20433;-78
2022/01/22 16:27:24;;;;;;;3.27;2.13;;;5.70;83.50;;;;;;4997945;28;20485;-78
2022/01/22 16:29:52;;;;;;;3.20;2.13;;;5.70;83.70;;;;;;4997005;28;20919;-79
2022/01/22 16:32:20;;;;;;;2.90;2.10;;;5.80;82.90;;;;;;4997208;28;20456;-79
2022/01/22 16:34:47;;;;;;;2.93;2.10;;;5.60;83.60;;;;;;4997217;28;20464;-78
2022/01/22 16:37:14;;;;;;;3.73;3.00;;;5.50;83.60;;;;;;4996841;28;20961;-78
2022/01/22 16:39:40;;;;;;;3.93;2.70;;;5.50;84.10;;;;;;4997032;28;20526;-78
2022/01/22 16:42:14;;;;;;;3.40;2.70;;;5.50;84.60;;;;;;4996803;28;20465;-78
2022/01/22 16:44:49;;;;;;;3.10;2.10;;;5.40;84.50;;;;;;4997109;28;20440;-79
2022/01/22 16:53:24;;;;;;;3.07;2.40;;;5.60;83.70;;;;;;4997102;28;20776;-79
2022/01/22 16:55:49;;;;;;;3.60;3.10;;;5.70;83.60;;;;;;4996624;28;20465;-79
2022/01/22 16:58:17;;;;;;;3.40;2.40;;;5.50;83.60;;;;;;4996766;28;20430;-79
2022/01/22 17:00:56;;;;;;;3.20;2.67;;;5.60;83.90;;;;;;4997013;28;20507;-78
2022/01/22 17:03:28;;;;;;;3.13;2.20;;;5.60;83.70;;;;;;4997397;28;20519;-79
2022/01/22 17:05:56;;;;;;;3.40;2.90;;;5.70;83.50;;;;;;4996353;28;20588;-79
2022/01/22 17:08:33;;;;;;;3.40;3.10;;;5.60;83.20;;;;;;4996603;28;20453;-79
2022/01/22 17:11:12;;;;;;;4.00;3.47;;;5.60;83.70;;;;;;4996571;28;20524;-79
2022/01/22 17:16:24;;;;;;;4.10;3.53;;;5.70;83.50;;;;;;4996406;28;20468;-78
2022/01/22 17:18:51;;;;;;;3.97;3.50;;;5.70;83.30;;;;;;4996770;28;20874;-79
2022/01/22 17:21:19;;;;;;;5.77;3.67;;;5.60;83.60;;;;;;4996826;28;20516;-79
2022/01/22 17:23:48;;;;;;;3.60;3.30;;;5.60;83.30;;;;;;4996930;28;20539;-78
2022/01/22 17:26:14;;;;;;;3.40;2.90;;;5.60;83.20;;;;;;4995947;28;20988;-78
2022/01/22 17:28:42;;;;;;;4.23;3.83;;;5.50;83.70;;;;;;4997284;28;20453;-78
2022/01/22 17:31:10;;;;;;;4.73;3.37;;;5.70;83.40;;;;;;4995697;28;20846;-78
2022/01/22 17:33:36;;;;;;;3.80;3.23;;;5.60;82.90;;;;;;4996187;28;20449;-78
2022/01/22 17:36:03;;;;;;;3.90;3.07;;;5.60;83.30;;;;;;4996142;28;20468;-78
2022/01/22 17:38:30;;;;;;;5.93;3.70;;;5.50;83.00;;;;;;4996203;28;20503;-78
2022/01/22 17:41:06;;;;;;;4.43;4.03;;;5.50;83.50;;;;;;4996020;28;20461;-78
2022/01/22 17:43:35;;;;;;;3.60;2.83;;;5.40;83.60;;;;;;4996327;28;20468;-78
2022/01/22 17:46:05;;;;;;;4.43;3.80;;;5.50;83.70;;;;;;4995926;28;20464;-78
2022/01/22 17:48:32;;;;;;;5.03;3.40;;;5.50;83.00;;;;;;4995984;28;20507;-78
2022/01/22 17:51:00;;;;;;;4.30;3.57;;;5.40;83.20;;;;;;4996042;28;20486;-78
2022/01/22 17:53:27;;;;;;;4.10;3.40;;;5.40;83.50;;;;;;4996693;28;20449;-79
2022/01/22 17:55:56;;;;;;;4.27;3.13;;;5.40;83.50;;;;;;4995998;28;20473;-78
2022/01/22 17:58:24;;;;;;;3.90;3.50;;;5.40;83.80;;;;;;4996148;28;20449;-78
2022/01/22 18:00:53;;;;;;;3.70;3.00;;;5.40;83.80;;;;;;4996067;28;20495;-78
2022/01/22 18:03:24;;;;;;;4.00;3.30;;;5.40;83.60;;;;;;4996704;28;20445;-78
2022/01/22 18:05:51;;;;;;;3.90;3.10;;;5.30;83.90;;;;;;4997067;28;20477;-78
2022/01/22 18:08:18;;;;;;;4.43;3.73;;;5.40;83.60;;;;;;4995570;28;20840;-78
2022/01/22 18:10:45;;;;;;;4.03;3.33;;;5.30;83.80;;;;;;4995539;28;20519;-78
2022/01/22 18:13:12;;;;;;;3.90;3.20;;;5.30;83.60;;;;;;4996596;28;20450;-78